SBOSBO STN / EGSS
Speedbird OnlineSpeedbird Online STN / EGSS

London Stansted Airport
06:03 4.1°C

Location London, United Kingdom
Latitude: 51.8849983215
Longitude: 0.234999999404
Web Airport Website | Wikipedia
Altitude 106 Meter / 348 Feet
Distance 42 KM / 26 Miles
from London.
Time Zone UTC 0 hours (Europe/London)
Codes IATA: STN
ICAO: EGSS
Runways
RunwayLength (m)Surface
043049Asphalt
223049Asphalt
Radio
TypeDescriptionFrequency
APPEssex Radar120.625
ATISATIS127.175
CLDCLNC DEL121.95
DIRDIRECTOR136.2
GNDGND121.725
RDRDirector136.2
TWRTWR123.8
Live ATC
METAR EGSS 290550Z AUTO 23007KT 7000 BKN012 BKN016 OVC020 04/03 Q1028
TAF TAF EGSS 290459Z 2906/3012 24006KT 9999 SCT018 BECMG 2906/2909 SCT007 BKN012 TEMPO 2906/2914 3000 DZ BR BKN007 PROB30 TEMPO 2906/2911 BKN004 BECMG 2914/2917 FEW020 PROB40 TEMPO 2920/3005 BKN012 BECMG 3004/3006 30010KT
Weather As Of 29 Jan 2023 06:03
Description Overcast clouds
Wind 13 km/h from South-West (230°)
Cloud Cover 100%
Precipitation Rain: none, Snow: none
Sunrise 07:43
Sunset 16:40
Rotations During the last 90 days there were
1 flights from FAO
1 flights from FLR
2 flights to LCY
1 flights to LGW



Support Speedbird Online

© 2017-2023 Speedbird Online